sensor_id;sensor_type;location;lat;lon;timestamp;P1;durP1;ratioP1;P2;durP2;ratioP2
60314;SDS011;46159;42.550;21.904;2023-04-07T00:00:57;54.40;;;39.60;;
60314;SDS011;46159;42.550;21.904;2023-04-07T00:03:23;75.40;;;52.75;;
60314;SDS011;46159;42.550;21.904;2023-04-07T00:05:50;65.68;;;46.97;;
60314;SDS011;46159;42.550;21.904;2023-04-07T00:08:16;70.90;;;45.65;;
60314;SDS011;46159;42.550;21.904;2023-04-07T00:10:42;53.95;;;38.25;;
60314;SDS011;46159;42.550;21.904;2023-04-07T00:13:08;34.58;;;26.38;;
60314;SDS011;46159;42.550;21.904;2023-04-07T00:15:34;38.55;;;28.02;;
60314;SDS011;46159;42.550;21.904;2023-04-07T00:18:00;69.80;;;47.58;;
60314;SDS011;46159;42.550;21.904;2023-04-07T00:20:26;59.75;;;44.17;;
60314;SDS011;46159;42.550;21.904;2023-04-07T00:22:52;48.80;;;32.90;;
60314;SDS011;46159;42.550;21.904;2023-04-07T00:25:18;43.30;;;32.55;;
60314;SDS011;46159;42.550;21.904;2023-04-07T00:27:44;46.22;;;32.65;;
60314;SDS011;46159;42.550;21.904;2023-04-07T00:30:10;43.72;;;32.22;;
60314;SDS011;46159;42.550;21.904;2023-04-07T00:32:36;40.55;;;30.33;;
60314;SDS011;46159;42.550;21.904;2023-04-07T00:35:02;38.75;;;27.52;;
60314;SDS011;46159;42.550;21.904;2023-04-07T00:37:28;45.97;;;32.80;;
60314;SDS011;46159;42.550;21.904;2023-04-07T00:39:55;54.13;;;35.53;;
60314;SDS011;46159;42.550;21.904;2023-04-07T00:42:23;56.47;;;37.53;;
60314;SDS011;46159;42.550;21.904;2023-04-07T00:44:49;54.20;;;36.30;;
60314;SDS011;46159;42.550;21.904;2023-04-07T00:47:15;55.75;;;37.88;;
60314;SDS011;46159;42.550;21.904;2023-04-07T00:49:41;55.33;;;37.17;;
60314;SDS011;46159;42.550;21.904;2023-04-07T00:52:08;55.17;;;36.88;;
60314;SDS011;46159;42.550;21.904;2023-04-07T00:54:35;56.30;;;39.47;;
60314;SDS011;46159;42.550;21.904;2023-04-07T00:57:02;64.75;;;44.88;;
60314;SDS011;46159;42.550;21.904;2023-04-07T00:59:28;69.85;;;45.92;;
60314;SDS011;46159;42.550;21.904;2023-04-07T01:02:04;65.97;;;44.85;;
60314;SDS011;46159;42.550;21.904;2023-04-07T01:04:38;76.72;;;49.88;;
60314;SDS011;46159;42.550;21.904;2023-04-07T01:07:08;85.57;;;54.65;;
60314;SDS011;46159;42.550;21.904;2023-04-07T01:09:37;88.57;;;58.53;;
60314;SDS011;46159;42.550;21.904;2023-04-07T01:14:50;74.70;;;50.03;;
60314;SDS011;46159;42.550;21.904;2023-04-07T01:17:19;66.97;;;44.97;;
60314;SDS011;46159;42.550;21.904;2023-04-07T01:19:46;75.82;;;48.00;;
60314;SDS011;46159;42.550;21.904;2023-04-07T01:22:14;69.68;;;45.33;;
60314;SDS011;46159;42.550;21.904;2023-04-07T01:25:05;62.38;;;39.75;;
60314;SDS011;46159;42.550;21.904;2023-04-07T01:29:54;70.63;;;45.80;;
60314;SDS011;46159;42.550;21.904;2023-04-07T01:32:20;67.30;;;44.78;;
60314;SDS011;46159;42.550;21.904;2023-04-07T01:34:49;71.05;;;44.35;;
60314;SDS011;46159;42.550;21.904;2023-04-07T01:37:15;73.47;;;48.85;;
60314;SDS011;46159;42.550;21.904;2023-04-07T01:39:41;86.80;;;55.70;;
60314;SDS011;46159;42.550;21.904;2023-04-07T01:42:07;83.20;;;54.85;;
60314;SDS011;46159;42.550;21.904;2023-04-07T01:44:34;75.28;;;47.78;;
60314;SDS011;46159;42.550;21.904;2023-04-07T01:47:01;62.10;;;43.63;;
60314;SDS011;46159;42.550;21.904;2023-04-07T01:49:27;67.97;;;44.42;;
60314;SDS011;46159;42.550;21.904;2023-04-07T01:51:54;65.85;;;44.95;;
60314;SDS011;46159;42.550;21.904;2023-04-07T01:54:22;71.53;;;46.75;;
60314;SDS011;46159;42.550;21.904;2023-04-07T01:56:48;72.50;;;49.42;;
60314;SDS011;46159;42.550;21.904;2023-04-07T01:59:14;77.72;;;50.03;;
60314;SDS011;46159;42.550;21.904;2023-04-07T02:01:40;72.10;;;48.33;;
60314;SDS011;46159;42.550;21.904;2023-04-07T02:06:43;69.75;;;46.85;;
60314;SDS011;46159;42.550;21.904;2023-04-07T02:09:12;73.55;;;49.08;;
60314;SDS011;46159;42.550;21.904;2023-04-07T02:11:40;71.03;;;47.78;;
60314;SDS011;46159;42.550;21.904;2023-04-07T02:14:07;68.60;;;44.80;;
60314;SDS011;46159;42.550;21.904;2023-04-07T02:16:33;72.57;;;48.83;;
60314;SDS011;46159;42.550;21.904;2023-04-07T02:19:00;68.47;;;47.13;;
60314;SDS011;46159;42.550;21.904;2023-04-07T02:21:27;69.85;;;48.65;;
60314;SDS011;46159;42.550;21.904;2023-04-07T02:23:55;75.30;;;50.72;;
60314;SDS011;46159;42.550;21.904;2023-04-07T02:26:21;72.25;;;48.35;;
60314;SDS011;46159;42.550;21.904;2023-04-07T02:28:47;69.22;;;46.33;;
60314;SDS011;46159;42.550;21.904;2023-04-07T02:31:13;68.05;;;44.63;;
60314;SDS011;46159;42.550;21.904;2023-04-07T02:33:40;70.53;;;47.85;;
60314;SDS011;46159;42.550;21.904;2023-04-07T02:36:06;64.65;;;43.95;;
60314;SDS011;46159;42.550;21.904;2023-04-07T02:38:32;65.35;;;43.85;;
60314;SDS011;46159;42.550;21.904;2023-04-07T02:40:58;72.10;;;45.53;;
60314;SDS011;46159;42.550;21.904;2023-04-07T02:43:24;71.88;;;44.20;;
60314;SDS011;46159;42.550;21.904;2023-04-07T02:45:50;69.18;;;43.03;;
60314;SDS011;46159;42.550;21.904;2023-04-07T02:48:16;63.58;;;42.65;;
60314;SDS011;46159;42.550;21.904;2023-04-07T02:50:42;67.20;;;42.88;;
60314;SDS011;46159;42.550;21.904;2023-04-07T02:53:08;75.10;;;45.63;;
60314;SDS011;46159;42.550;21.904;2023-04-07T02:55:35;68.47;;;43.20;;
60314;SDS011;46159;42.550;21.904;2023-04-07T02:58:01;78.20;;;47.28;;
60314;SDS011;46159;42.550;21.904;2023-04-07T03:00:27;65.30;;;43.30;;
60314;SDS011;46159;42.550;21.904;2023-04-07T03:02:53;71.00;;;45.20;;
60314;SDS011;46159;42.550;21.904;2023-04-07T03:05:19;48.53;;;35.58;;
60314;SDS011;46159;42.550;21.904;2023-04-07T03:07:45;48.33;;;34.55;;
60314;SDS011;46159;42.550;21.904;2023-04-07T03:10:11;44.10;;;32.88;;
60314;SDS011;46159;42.550;21.904;2023-04-07T03:12:37;44.75;;;33.92;;
60314;SDS011;46159;42.550;21.904;2023-04-07T03:15:03;47.50;;;33.40;;
60314;SDS011;46159;42.550;21.904;2023-04-07T03:17:29;52.83;;;35.47;;
60314;SDS011;46159;42.550;21.904;2023-04-07T03:19:55;47.10;;;32.03;;
60314;SDS011;46159;42.550;21.904;2023-04-07T03:22:21;57.65;;;38.70;;
60314;SDS011;46159;42.550;21.904;2023-04-07T03:24:47;54.35;;;38.58;;
60314;SDS011;46159;42.550;21.904;2023-04-07T03:27:13;57.50;;;39.38;;
60314;SDS011;46159;42.550;21.904;2023-04-07T03:29:41;71.60;;;44.47;;
60314;SDS011;46159;42.550;21.904;2023-04-07T03:32:07;64.65;;;43.65;;
60314;SDS011;46159;42.550;21.904;2023-04-07T03:34:33;62.72;;;42.10;;
60314;SDS011;46159;42.550;21.904;2023-04-07T03:36:59;56.97;;;42.15;;
60314;SDS011;46159;42.550;21.904;2023-04-07T03:39:25;63.30;;;42.20;;
60314;SDS011;46159;42.550;21.904;2023-04-07T03:41:51;66.25;;;44.15;;
60314;SDS011;46159;42.550;21.904;2023-04-07T03:44:17;67.53;;;42.47;;
60314;SDS011;46159;42.550;21.904;2023-04-07T03:46:43;67.80;;;45.08;;
60314;SDS011;46159;42.550;21.904;2023-04-07T03:49:12;68.85;;;45.03;;
60314;SDS011;46159;42.550;21.904;2023-04-07T03:51:38;126.70;;;74.00;;
60314;SDS011;46159;42.550;21.904;2023-04-07T03:54:04;103.65;;;65.85;;
60314;SDS011;46159;42.550;21.904;2023-04-07T03:56:30;96.13;;;58.50;;
60314;SDS011;46159;42.550;21.904;2023-04-07T03:58:56;84.88;;;56.08;;
60314;SDS011;46159;42.550;21.904;2023-04-07T04:01:22;93.05;;;58.88;;
60314;SDS011;46159;42.550;21.904;2023-04-07T04:03:48;117.15;;;71.28;;
60314;SDS011;46159;42.550;21.904;2023-04-07T04:06:15;129.07;;;77.38;;
60314;SDS011;46159;42.550;21.904;2023-04-07T04:08:41;125.63;;;77.68;;
60314;SDS011;46159;42.550;21.904;2023-04-07T04:11:07;119.13;;;73.57;;
60314;SDS011;46159;42.550;21.904;2023-04-07T04:13:33;139.05;;;85.22;;
60314;SDS011;46159;42.550;21.904;2023-04-07T04:15:59;151.18;;;91.85;;
60314;SDS011;46159;42.550;21.904;2023-04-07T04:18:25;198.25;;;101.10;;
60314;SDS011;46159;42.550;21.904;2023-04-07T04:20:51;149.30;;;77.78;;
60314;SDS011;46159;42.550;21.904;2023-04-07T04:23:17;141.48;;;69.50;;
60314;SDS011;46159;42.550;21.904;2023-04-07T04:25:43;114.13;;;54.33;;
60314;SDS011;46159;42.550;21.904;2023-04-07T04:28:09;102.63;;;47.53;;
60314;SDS011;46159;42.550;21.904;2023-04-07T04:30:35;61.38;;;33.80;;
60314;SDS011;46159;42.550;21.904;2023-04-07T04:33:01;32.05;;;21.95;;
60314;SDS011;46159;42.550;21.904;2023-04-07T04:35:27;36.47;;;24.73;;
60314;SDS011;46159;42.550;21.904;2023-04-07T04:37:53;31.05;;;21.63;;
60314;SDS011;46159;42.550;21.904;2023-04-07T04:40:19;179.93;;;77.28;;
60314;SDS011;46159;42.550;21.904;2023-04-07T04:42:45;88.68;;;45.00;;
60314;SDS011;46159;42.550;21.904;2023-04-07T04:45:11;109.93;;;51.22;;
60314;SDS011;46159;42.550;21.904;2023-04-07T04:47:38;72.72;;;41.38;;
60314;SDS011;46159;42.550;21.904;2023-04-07T04:50:05;115.28;;;56.10;;
60314;SDS011;46159;42.550;21.904;2023-04-07T04:52:31;63.35;;;37.40;;
60314;SDS011;46159;42.550;21.904;2023-04-07T04:54:58;45.25;;;27.33;;
60314;SDS011;46159;42.550;21.904;2023-04-07T04:57:24;48.15;;;29.73;;
60314;SDS011;46159;42.550;21.904;2023-04-07T04:59:50;83.30;;;42.88;;
60314;SDS011;46159;42.550;21.904;2023-04-07T05:02:16;70.32;;;36.88;;
60314;SDS011;46159;42.550;21.904;2023-04-07T05:04:42;58.10;;;35.45;;
60314;SDS011;46159;42.550;21.904;2023-04-07T05:07:08;95.57;;;53.20;;
60314;SDS011;46159;42.550;21.904;2023-04-07T05:09:35;117.65;;;59.22;;
60314;SDS011;46159;42.550;21.904;2023-04-07T05:12:01;87.18;;;50.15;;
60314;SDS011;46159;42.550;21.904;2023-04-07T05:14:27;170.80;;;86.43;;
60314;SDS011;46159;42.550;21.904;2023-04-07T05:16:53;139.02;;;76.90;;
60314;SDS011;46159;42.550;21.904;2023-04-07T05:19:19;107.53;;;73.57;;
60314;SDS011;46159;42.550;21.904;2023-04-07T05:21:45;99.75;;;68.15;;
60314;SDS011;46159;42.550;21.904;2023-04-07T05:24:11;106.50;;;67.68;;
60314;SDS011;46159;42.550;21.904;2023-04-07T05:26:37;113.15;;;71.90;;
60314;SDS011;46159;42.550;21.904;2023-04-07T05:29:03;118.60;;;76.13;;
60314;SDS011;46159;42.550;21.904;2023-04-07T05:31:30;136.45;;;88.03;;
60314;SDS011;46159;42.550;21.904;2023-04-07T05:33:57;179.23;;;109.13;;
60314;SDS011;46159;42.550;21.904;2023-04-07T05:36:23;127.63;;;86.40;;
60314;SDS011;46159;42.550;21.904;2023-04-07T05:38:49;112.40;;;74.15;;
60314;SDS011;46159;42.550;21.904;2023-04-07T05:41:15;114.78;;;79.57;;
60314;SDS011;46159;42.550;21.904;2023-04-07T05:43:41;90.38;;;60.05;;
60314;SDS011;46159;42.550;21.904;2023-04-07T05:46:08;43.28;;;29.13;;
60314;SDS011;46159;42.550;21.904;2023-04-07T05:48:34;44.65;;;30.05;;
60314;SDS011;46159;42.550;21.904;2023-04-07T05:51:00;40.00;;;28.80;;
60314;SDS011;46159;42.550;21.904;2023-04-07T05:53:26;44.70;;;28.20;;
60314;SDS011;46159;42.550;21.904;2023-04-07T05:55:52;41.30;;;32.33;;
60314;SDS011;46159;42.550;21.904;2023-04-07T05:58:18;38.28;;;29.88;;
60314;SDS011;46159;42.550;21.904;2023-04-07T06:00:44;37.97;;;26.40;;
60314;SDS011;46159;42.550;21.904;2023-04-07T06:03:10;60.90;;;28.00;;
60314;SDS011;46159;42.550;21.904;2023-04-07T06:05:36;46.72;;;29.52;;
60314;SDS011;46159;42.550;21.904;2023-04-07T06:08:07;48.10;;;32.28;;
60314;SDS011;46159;42.550;21.904;2023-04-07T06:10:33;31.65;;;23.15;;
60314;SDS011;46159;42.550;21.904;2023-04-07T06:12:59;37.00;;;25.55;;
60314;SDS011;46159;42.550;21.904;2023-04-07T06:15:26;38.13;;;28.02;;
60314;SDS011;46159;42.550;21.904;2023-04-07T06:17:52;43.10;;;28.70;;
60314;SDS011;46159;42.550;21.904;2023-04-07T06:20:18;41.85;;;30.38;;
60314;SDS011;46159;42.550;21.904;2023-04-07T06:22:45;44.17;;;28.98;;
60314;SDS011;46159;42.550;21.904;2023-04-07T06:25:11;31.77;;;24.48;;
60314;SDS011;46159;42.550;21.904;2023-04-07T06:27:37;41.08;;;31.98;;
60314;SDS011;46159;42.550;21.904;2023-04-07T06:30:04;39.80;;;26.55;;
60314;SDS011;46159;42.550;21.904;2023-04-07T06:32:30;37.60;;;27.13;;
60314;SDS011;46159;42.550;21.904;2023-04-07T06:34:57;33.47;;;23.52;;
60314;SDS011;46159;42.550;21.904;2023-04-07T06:37:23;38.67;;;26.73;;
60314;SDS011;46159;42.550;21.904;2023-04-07T06:39:50;30.65;;;23.70;;
60314;SDS011;46159;42.550;21.904;2023-04-07T06:42:16;40.63;;;25.77;;
60314;SDS011;46159;42.550;21.904;2023-04-07T06:44:42;29.60;;;22.55;;
60314;SDS011;46159;42.550;21.904;2023-04-07T06:47:08;27.95;;;19.33;;
60314;SDS011;46159;42.550;21.904;2023-04-07T06:49:34;43.83;;;39.15;;
60314;SDS011;46159;42.550;21.904;2023-04-07T06:52:00;48.25;;;34.25;;
60314;SDS011;46159;42.550;21.904;2023-04-07T06:54:26;31.58;;;21.33;;
60314;SDS011;46159;42.550;21.904;2023-04-07T06:56:52;30.42;;;24.02;;
60314;SDS011;46159;42.550;21.904;2023-04-07T06:59:18;36.80;;;26.83;;
60314;SDS011;46159;42.550;21.904;2023-04-07T07:01:44;30.52;;;23.75;;
60314;SDS011;46159;42.550;21.904;2023-04-07T07:04:10;49.10;;;31.13;;
60314;SDS011;46159;42.550;21.904;2023-04-07T07:06:36;57.60;;;40.47;;
60314;SDS011;46159;42.550;21.904;2023-04-07T07:09:02;33.15;;;24.83;;
60314;SDS011;46159;42.550;21.904;2023-04-07T07:11:28;27.85;;;22.15;;
60314;SDS011;46159;42.550;21.904;2023-04-07T07:13:54;39.58;;;23.63;;
60314;SDS011;46159;42.550;21.904;2023-04-07T07:16:20;41.78;;;31.70;;
60314;SDS011;46159;42.550;21.904;2023-04-07T07:18:48;36.97;;;29.75;;
60314;SDS011;46159;42.550;21.904;2023-04-07T07:21:15;35.20;;;24.92;;
60314;SDS011;46159;42.550;21.904;2023-04-07T07:23:42;26.52;;;19.23;;
60314;SDS011;46159;42.550;21.904;2023-04-07T07:26:08;28.90;;;22.85;;
60314;SDS011;46159;42.550;21.904;2023-04-07T07:28:34;28.48;;;20.45;;
60314;SDS011;46159;42.550;21.904;2023-04-07T07:31:07;26.73;;;22.15;;
60314;SDS011;46159;42.550;21.904;2023-04-07T07:33:34;24.73;;;19.55;;
60314;SDS011;46159;42.550;21.904;2023-04-07T07:36:00;29.08;;;21.27;;
60314;SDS011;46159;42.550;21.904;2023-04-07T07:38:26;30.90;;;20.80;;
60314;SDS011;46159;42.550;21.904;2023-04-07T07:40:52;25.20;;;18.42;;
60314;SDS011;46159;42.550;21.904;2023-04-07T07:43:18;25.25;;;18.50;;
60314;SDS011;46159;42.550;21.904;2023-04-07T07:45:44;25.25;;;20.48;;
60314;SDS011;46159;42.550;21.904;2023-04-07T07:48:10;23.05;;;17.65;;
60314;SDS011;46159;42.550;21.904;2023-04-07T07:50:36;30.38;;;21.17;;
60314;SDS011;46159;42.550;21.904;2023-04-07T07:53:02;29.08;;;20.85;;
60314;SDS011;46159;42.550;21.904;2023-04-07T07:55:29;31.52;;;23.00;;
60314;SDS011;46159;42.550;21.904;2023-04-07T07:57:55;44.90;;;35.78;;
60314;SDS011;46159;42.550;21.904;2023-04-07T08:00:21;29.45;;;21.05;;
60314;SDS011;46159;42.550;21.904;2023-04-07T08:02:48;26.10;;;21.17;;
60314;SDS011;46159;42.550;21.904;2023-04-07T08:05:14;34.85;;;27.15;;
60314;SDS011;46159;42.550;21.904;2023-04-07T08:07:40;24.60;;;17.65;;
60314;SDS011;46159;42.550;21.904;2023-04-07T08:10:07;21.20;;;16.35;;
60314;SDS011;46159;42.550;21.904;2023-04-07T08:12:33;24.83;;;17.55;;
60314;SDS011;46159;42.550;21.904;2023-04-07T08:14:59;25.73;;;18.52;;
60314;SDS011;46159;42.550;21.904;2023-04-07T08:17:26;19.77;;;16.75;;
60314;SDS011;46159;42.550;21.904;2023-04-07T08:19:52;25.02;;;20.67;;
60314;SDS011;46159;42.550;21.904;2023-04-07T08:22:19;28.15;;;20.38;;
60314;SDS011;46159;42.550;21.904;2023-04-07T08:24:45;33.65;;;21.63;;
60314;SDS011;46159;42.550;21.904;2023-04-07T08:27:11;19.83;;;15.32;;
60314;SDS011;46159;42.550;21.904;2023-04-07T08:29:37;22.65;;;18.83;;
60314;SDS011;46159;42.550;21.904;2023-04-07T08:32:03;25.05;;;18.08;;
60314;SDS011;46159;42.550;21.904;2023-04-07T08:34:30;22.92;;;17.50;;
60314;SDS011;46159;42.550;21.904;2023-04-07T08:36:56;27.63;;;19.27;;
60314;SDS011;46159;42.550;21.904;2023-04-07T08:39:22;19.58;;;14.68;;
60314;SDS011;46159;42.550;21.904;2023-04-07T08:41:49;25.60;;;15.52;;
60314;SDS011;46159;42.550;21.904;2023-04-07T08:44:16;22.92;;;14.52;;
60314;SDS011;46159;42.550;21.904;2023-04-07T08:46:42;21.67;;;15.05;;
60314;SDS011;46159;42.550;21.904;2023-04-07T08:49:10;25.65;;;15.10;;
60314;SDS011;46159;42.550;21.904;2023-04-07T08:51:39;16.02;;;12.57;;
60314;SDS011;46159;42.550;21.904;2023-04-07T08:54:10;19.55;;;12.68;;
60314;SDS011;46159;42.550;21.904;2023-04-07T08:56:40;16.95;;;10.95;;
60314;SDS011;46159;42.550;21.904;2023-04-07T08:59:06;17.80;;;12.52;;
60314;SDS011;46159;42.550;21.904;2023-04-07T09:01:33;16.40;;;11.63;;
60314;SDS011;46159;42.550;21.904;2023-04-07T09:04:01;15.45;;;11.55;;
60314;SDS011;46159;42.550;21.904;2023-04-07T09:06:28;22.20;;;10.95;;
60314;SDS011;46159;42.550;21.904;2023-04-07T09:08:56;18.42;;;11.63;;
60314;SDS011;46159;42.550;21.904;2023-04-07T09:11:22;16.90;;;12.02;;
60314;SDS011;46159;42.550;21.904;2023-04-07T09:13:48;19.15;;;12.75;;
60314;SDS011;46159;42.550;21.904;2023-04-07T09:16:15;16.00;;;10.98;;
60314;SDS011;46159;42.550;21.904;2023-04-07T09:18:41;19.48;;;11.57;;
60314;SDS011;46159;42.550;21.904;2023-04-07T09:21:07;17.65;;;11.43;;
60314;SDS011;46159;42.550;21.904;2023-04-07T09:23:36;19.73;;;12.20;;
60314;SDS011;46159;42.550;21.904;2023-04-07T09:26:18;19.60;;;11.18;;
60314;SDS011;46159;42.550;21.904;2023-04-07T09:28:47;18.30;;;11.63;;
60314;SDS011;46159;42.550;21.904;2023-04-07T09:31:14;13.85;;;7.78;;
60314;SDS011;46159;42.550;21.904;2023-04-07T09:33:40;13.20;;;8.35;;
60314;SDS011;46159;42.550;21.904;2023-04-07T09:36:06;22.27;;;10.77;;
60314;SDS011;46159;42.550;21.904;2023-04-07T09:38:37;19.70;;;9.90;;
60314;SDS011;46159;42.550;21.904;2023-04-07T09:43:36;23.50;;;11.70;;
60314;SDS011;46159;42.550;21.904;2023-04-07T09:46:20;21.20;;;13.95;;
60314;SDS011;46159;42.550;21.904;2023-04-07T09:48:46;34.78;;;21.90;;
60314;SDS011;46159;42.550;21.904;2023-04-07T09:51:13;30.50;;;20.20;;
60314;SDS011;46159;42.550;21.904;2023-04-07T09:53:40;28.80;;;17.13;;
60314;SDS011;46159;42.550;21.904;2023-04-07T09:56:08;34.45;;;19.45;;
60314;SDS011;46159;42.550;21.904;2023-04-07T09:58:36;34.00;;;17.40;;
60314;SDS011;46159;42.550;21.904;2023-04-07T10:01:03;31.75;;;17.80;;
60314;SDS011;46159;42.550;21.904;2023-04-07T10:03:31;34.38;;;16.63;;
60314;SDS011;46159;42.550;21.904;2023-04-07T10:05:58;37.30;;;21.98;;
60314;SDS011;46159;42.550;21.904;2023-04-07T10:08:25;22.98;;;12.70;;
60314;SDS011;46159;42.550;21.904;2023-04-07T10:10:52;18.33;;;11.88;;
60314;SDS011;46159;42.550;21.904;2023-04-07T10:13:18;22.52;;;12.73;;
60314;SDS011;46159;42.550;21.904;2023-04-07T10:15:46;16.33;;;11.38;;
60314;SDS011;46159;42.550;21.904;2023-04-07T10:18:12;18.80;;;14.15;;
60314;SDS011;46159;42.550;21.904;2023-04-07T10:20:39;20.42;;;13.27;;
60314;SDS011;46159;42.550;21.904;2023-04-07T10:23:08;14.52;;;10.07;;
60314;SDS011;46159;42.550;21.904;2023-04-07T10:25:38;18.20;;;12.45;;
60314;SDS011;46159;42.550;21.904;2023-04-07T10:28:05;19.27;;;12.55;;
60314;SDS011;46159;42.550;21.904;2023-04-07T10:30:32;56.45;;;42.72;;
60314;SDS011;46159;42.550;21.904;2023-04-07T10:32:59;18.05;;;13.10;;
60314;SDS011;46159;42.550;21.904;2023-04-07T10:35:25;50.22;;;39.30;;
60314;SDS011;46159;42.550;21.904;2023-04-07T10:40:37;16.67;;;10.02;;
60314;SDS011;46159;42.550;21.904;2023-04-07T10:43:04;21.95;;;14.75;;
60314;SDS011;46159;42.550;21.904;2023-04-07T10:48:18;16.13;;;10.95;;
60314;SDS011;46159;42.550;21.904;2023-04-07T10:50:45;18.63;;;10.27;;
60314;SDS011;46159;42.550;21.904;2023-04-07T10:53:13;16.75;;;11.70;;
60314;SDS011;46159;42.550;21.904;2023-04-07T10:55:43;18.80;;;11.70;;
60314;SDS011;46159;42.550;21.904;2023-04-07T10:58:17;26.67;;;16.88;;
60314;SDS011;46159;42.550;21.904;2023-04-07T11:03:23;17.13;;;10.98;;
60314;SDS011;46159;42.550;21.904;2023-04-07T11:05:50;13.75;;;9.75;;
60314;SDS011;46159;42.550;21.904;2023-04-07T11:08:32;21.67;;;10.43;;
60314;SDS011;46159;42.550;21.904;2023-04-07T11:10:58;20.45;;;11.25;;
60314;SDS011;46159;42.550;21.904;2023-04-07T11:13:25;23.90;;;13.60;;
60314;SDS011;46159;42.550;21.904;2023-04-07T11:15:51;20.20;;;12.55;;
60314;SDS011;46159;42.550;21.904;2023-04-07T11:18:21;20.42;;;12.18;;
60314;SDS011;46159;42.550;21.904;2023-04-07T11:20:49;21.30;;;11.75;;
60314;SDS011;46159;42.550;21.904;2023-04-07T11:23:17;20.30;;;12.20;;
60314;SDS011;46159;42.550;21.904;2023-04-07T11:25:44;14.45;;;9.90;;
60314;SDS011;46159;42.550;21.904;2023-04-07T11:28:11;15.63;;;8.85;;
60314;SDS011;46159;42.550;21.904;2023-04-07T11:30:37;22.73;;;13.52;;
60314;SDS011;46159;42.550;21.904;2023-04-07T11:33:03;17.08;;;10.52;;
60314;SDS011;46159;42.550;21.904;2023-04-07T11:35:30;15.07;;;10.80;;
60314;SDS011;46159;42.550;21.904;2023-04-07T11:37:59;12.88;;;8.45;;
60314;SDS011;46159;42.550;21.904;2023-04-07T11:40:32;15.90;;;9.25;;
60314;SDS011;46159;42.550;21.904;2023-04-07T11:42:58;12.98;;;8.15;;
60314;SDS011;46159;42.550;21.904;2023-04-07T11:45:25;14.43;;;7.93;;
60314;SDS011;46159;42.550;21.904;2023-04-07T11:47:51;13.77;;;7.97;;
60314;SDS011;46159;42.550;21.904;2023-04-07T11:50:37;17.92;;;8.98;;
60314;SDS011;46159;42.550;21.904;2023-04-07T11:53:03;28.98;;;13.00;;
60314;SDS011;46159;42.550;21.904;2023-04-07T11:55:30;22.60;;;10.80;;
60314;SDS011;46159;42.550;21.904;2023-04-07T11:58:04;18.67;;;10.07;;
60314;SDS011;46159;42.550;21.904;2023-04-07T12:00:30;30.25;;;16.75;;
60314;SDS011;46159;42.550;21.904;2023-04-07T12:02:56;24.80;;;14.73;;
60314;SDS011;46159;42.550;21.904;2023-04-07T12:05:22;21.05;;;11.00;;
60314;SDS011;46159;42.550;21.904;2023-04-07T12:07:52;15.57;;;8.75;;
60314;SDS011;46159;42.550;21.904;2023-04-07T12:12:45;20.48;;;9.40;;
60314;SDS011;46159;42.550;21.904;2023-04-07T12:15:12;22.38;;;11.40;;
60314;SDS011;46159;42.550;21.904;2023-04-07T12:17:42;20.52;;;12.38;;
60314;SDS011;46159;42.550;21.904;2023-04-07T12:20:09;15.05;;;8.57;;
60314;SDS011;46159;42.550;21.904;2023-04-07T12:22:35;16.83;;;9.57;;
60314;SDS011;46159;42.550;21.904;2023-04-07T12:25:01;15.82;;;9.50;;
60314;SDS011;46159;42.550;21.904;2023-04-07T12:27:27;19.95;;;11.43;;
60314;SDS011;46159;42.550;21.904;2023-04-07T12:29:53;14.68;;;8.75;;
60314;SDS011;46159;42.550;21.904;2023-04-07T12:32:19;12.35;;;7.90;;
60314;SDS011;46159;42.550;21.904;2023-04-07T12:34:45;15.73;;;9.07;;
60314;SDS011;46159;42.550;21.904;2023-04-07T12:37:12;16.85;;;8.75;;
60314;SDS011;46159;42.550;21.904;2023-04-07T12:39:38;25.25;;;13.45;;
60314;SDS011;46159;42.550;21.904;2023-04-07T12:42:04;29.88;;;10.50;;
60314;SDS011;46159;42.550;21.904;2023-04-07T12:44:31;12.93;;;7.50;;
60314;SDS011;46159;42.550;21.904;2023-04-07T12:46:57;17.48;;;9.90;;
60314;SDS011;46159;42.550;21.904;2023-04-07T12:49:23;20.73;;;13.90;;
60314;SDS011;46159;42.550;21.904;2023-04-07T12:51:50;16.63;;;9.63;;
60314;SDS011;46159;42.550;21.904;2023-04-07T12:54:16;16.80;;;9.27;;
60314;SDS011;46159;42.550;21.904;2023-04-07T12:56:42;13.35;;;7.45;;
60314;SDS011;46159;42.550;21.904;2023-04-07T12:59:08;16.15;;;8.73;;
60314;SDS011;46159;42.550;21.904;2023-04-07T13:01:34;22.92;;;10.85;;
60314;SDS011;46159;42.550;21.904;2023-04-07T13:04:01;14.48;;;7.28;;
60314;SDS011;46159;42.550;21.904;2023-04-07T13:06:27;27.23;;;11.30;;
60314;SDS011;46159;42.550;21.904;2023-04-07T13:08:53;13.10;;;8.35;;
60314;SDS011;46159;42.550;21.904;2023-04-07T13:11:20;25.30;;;11.98;;
60314;SDS011;46159;42.550;21.904;2023-04-07T13:13:46;20.17;;;10.57;;
60314;SDS011;46159;42.550;21.904;2023-04-07T13:16:12;21.55;;;9.13;;
60314;SDS011;46159;42.550;21.904;2023-04-07T13:18:38;17.55;;;8.13;;
60314;SDS011;46159;42.550;21.904;2023-04-07T13:21:04;16.70;;;8.93;;
60314;SDS011;46159;42.550;21.904;2023-04-07T13:23:31;14.90;;;7.75;;
60314;SDS011;46159;42.550;21.904;2023-04-07T13:25:57;18.17;;;8.63;;
60314;SDS011;46159;42.550;21.904;2023-04-07T13:28:23;18.52;;;9.82;;
60314;SDS011;46159;42.550;21.904;2023-04-07T13:30:49;17.77;;;8.68;;
60314;SDS011;46159;42.550;21.904;2023-04-07T13:33:15;21.05;;;9.00;;
60314;SDS011;46159;42.550;21.904;2023-04-07T13:35:41;21.13;;;9.30;;
60314;SDS011;46159;42.550;21.904;2023-04-07T13:38:07;21.17;;;12.95;;
60314;SDS011;46159;42.550;21.904;2023-04-07T13:40:33;14.85;;;8.95;;
60314;SDS011;46159;42.550;21.904;2023-04-07T13:42:59;25.02;;;12.27;;
60314;SDS011;46159;42.550;21.904;2023-04-07T13:45:26;13.80;;;9.18;;
60314;SDS011;46159;42.550;21.904;2023-04-07T13:47:52;15.98;;;10.07;;
60314;SDS011;46159;42.550;21.904;2023-04-07T13:50:18;15.90;;;8.02;;
60314;SDS011;46159;42.550;21.904;2023-04-07T13:52:45;15.45;;;9.80;;
60314;SDS011;46159;42.550;21.904;2023-04-07T13:55:11;15.32;;;9.40;;
60314;SDS011;46159;42.550;21.904;2023-04-07T13:57:37;16.40;;;8.13;;
60314;SDS011;46159;42.550;21.904;2023-04-07T14:00:03;16.85;;;8.25;;
60314;SDS011;46159;42.550;21.904;2023-04-07T14:02:31;12.85;;;8.07;;
60314;SDS011;46159;42.550;21.904;2023-04-07T14:04:58;13.52;;;7.78;;
60314;SDS011;46159;42.550;21.904;2023-04-07T14:07:24;14.52;;;7.88;;
60314;SDS011;46159;42.550;21.904;2023-04-07T14:09:50;16.75;;;9.75;;
60314;SDS011;46159;42.550;21.904;2023-04-07T14:12:16;11.35;;;7.35;;
60314;SDS011;46159;42.550;21.904;2023-04-07T14:14:42;15.45;;;8.65;;
60314;SDS011;46159;42.550;21.904;2023-04-07T14:17:08;15.93;;;9.25;;
60314;SDS011;46159;42.550;21.904;2023-04-07T14:19:34;15.27;;;8.93;;
60314;SDS011;46159;42.550;21.904;2023-04-07T14:22:00;13.23;;;7.40;;
60314;SDS011;46159;42.550;21.904;2023-04-07T14:24:27;22.42;;;9.40;;
60314;SDS011;46159;42.550;21.904;2023-04-07T14:26:53;13.07;;;7.63;;
60314;SDS011;46159;42.550;21.904;2023-04-07T14:29:19;11.75;;;7.70;;